createdAt,value
2023-04-17T00:02:11.232Z,49.59
2023-04-17T00:04:38.805Z,49.38
2023-04-17T00:07:06.586Z,49.73
2023-04-17T00:09:33.908Z,49.53
2023-04-17T00:12:01.470Z,49.60
2023-04-17T00:14:28.903Z,49.77
2023-04-17T00:16:56.129Z,49.73
2023-04-17T00:19:23.149Z,49.65
2023-04-17T00:21:50.195Z,49.76
2023-04-17T00:24:17.228Z,49.68
2023-04-17T00:26:46.682Z,49.79
2023-04-17T00:29:13.821Z,50.01
2023-04-17T00:31:41.023Z,49.83
2023-04-17T00:34:08.016Z,49.74
2023-04-17T00:36:34.921Z,49.68
2023-04-17T00:39:01.937Z,50.10
2023-04-17T00:41:28.947Z,50.06
2023-04-17T00:43:55.738Z,49.79
2023-04-17T00:46:22.787Z,50.14
2023-04-17T00:48:49.793Z,50.18
2023-04-17T00:51:16.848Z,50.09
2023-04-17T00:53:43.955Z,50.30
2023-04-17T00:56:11.112Z,50.08
2023-04-17T00:58:37.931Z,50.14
2023-04-17T01:01:05.725Z,50.69
2023-04-17T01:03:32.911Z,50.86
2023-04-17T01:05:59.937Z,50.95
2023-04-17T01:08:26.878Z,50.87
2023-04-17T01:10:56.121Z,50.94
2023-04-17T01:13:22.917Z,50.96
2023-04-17T01:15:49.693Z,51.08
2023-04-17T01:18:16.994Z,51.33
2023-04-17T01:20:43.791Z,51.36
2023-04-17T01:23:10.558Z,51.49
2023-04-17T01:25:37.338Z,51.62
2023-04-17T01:28:04.235Z,52.04
2023-04-17T01:30:31.304Z,51.90
2023-04-17T01:32:58.129Z,52.12
2023-04-17T01:35:27.232Z,52.25
2023-04-17T01:37:54.015Z,52.29
2023-04-17T01:40:20.881Z,52.68
2023-04-17T01:42:47.665Z,52.36
2023-04-17T01:45:14.415Z,52.68
2023-04-17T01:47:41.469Z,52.72
2023-04-17T01:50:09.436Z,52.79
2023-04-17T01:52:36.836Z,53.07
2023-04-17T01:55:09.492Z,52.85
2023-04-17T01:57:36.347Z,52.73
2023-04-17T02:00:09.554Z,52.76
2023-04-17T02:02:36.694Z,52.91
2023-04-17T02:05:04.194Z,53.16
2023-04-17T02:07:31.034Z,53.24
2023-04-17T02:09:57.757Z,53.26
2023-04-17T02:12:24.559Z,53.18
2023-04-17T02:14:51.404Z,53.21
2023-04-17T02:17:18.708Z,52.85
2023-04-17T02:19:45.526Z,53.13
2023-04-17T02:22:17.883Z,52.96
2023-04-17T02:24:44.807Z,53.12
2023-04-17T02:27:12.092Z,53.24
2023-04-17T02:29:38.901Z,53.10
2023-04-17T02:32:05.742Z,53.11
2023-04-17T02:34:32.487Z,53.23
2023-04-17T02:36:59.252Z,53.43
2023-04-17T02:39:27.559Z,53.29
2023-04-17T02:41:54.536Z,53.25
2023-04-17T02:44:21.488Z,53.73
2023-04-17T02:46:48.250Z,53.75
2023-04-17T02:49:15.100Z,53.35
2023-04-17T02:51:41.954Z,53.49
2023-04-17T02:54:08.810Z,53.70
2023-04-17T02:56:35.751Z,53.74
2023-04-17T02:59:02.612Z,53.50
2023-04-17T03:01:30.317Z,53.56
2023-04-17T03:03:57.470Z,53.86
2023-04-17T03:06:24.439Z,54.07
2023-04-17T03:08:51.952Z,53.88
2023-04-17T03:11:18.809Z,53.80
2023-04-17T03:13:45.932Z,53.88
2023-04-17T03:16:13.206Z,53.91
2023-04-17T03:18:41.654Z,53.84
2023-04-17T03:21:08.929Z,53.94
2023-04-17T03:23:36.460Z,54.18
2023-04-17T03:26:08.278Z,54.01
2023-04-17T03:28:35.237Z,54.01
2023-04-17T03:31:02.381Z,54.00
2023-04-17T03:33:30.544Z,54.20
2023-04-17T03:35:57.955Z,54.44
2023-04-17T03:38:24.889Z,54.43
2023-04-17T03:40:52.240Z,54.34
2023-04-17T03:43:19.270Z,54.19
2023-04-17T03:45:46.326Z,54.17
2023-04-17T03:48:13.436Z,54.17
2023-04-17T03:50:40.611Z,54.53
2023-04-17T03:53:07.830Z,54.55
2023-04-17T03:55:35.266Z,54.43
2023-04-17T03:58:02.175Z,54.62
2023-04-17T04:00:29.538Z,54.90
2023-04-17T04:02:56.570Z,54.83
2023-04-17T04:05:23.908Z,54.75
2023-04-17T04:07:50.913Z,54.92
2023-04-17T04:10:18.101Z,55.09
2023-04-17T04:12:45.446Z,54.98
2023-04-17T04:15:12.621Z,55.14
2023-04-17T04:17:40.154Z,55.33
2023-04-17T04:20:09.669Z,55.63
2023-04-17T04:22:36.534Z,55.47
2023-04-17T04:25:04.142Z,55.56
2023-04-17T04:27:34.424Z,55.33
2023-04-17T04:30:02.512Z,55.62
2023-04-17T04:32:30.080Z,55.50
2023-04-17T04:34:59.231Z,55.56
2023-04-17T04:37:30.387Z,55.71
2023-04-17T04:40:11.126Z,55.62
2023-04-17T04:42:42.786Z,55.81
2023-04-17T04:45:10.085Z,55.89
2023-04-17T04:47:37.368Z,56.25
2023-04-17T04:50:04.906Z,56.10
2023-04-17T04:52:32.586Z,56.48
2023-04-17T04:55:00.299Z,56.54
2023-04-17T04:57:27.714Z,56.38
2023-04-17T04:59:54.634Z,56.05
2023-04-17T05:02:22.706Z,55.80
2023-04-17T05:04:50.550Z,55.59
2023-04-17T05:07:19.585Z,55.99
2023-04-17T05:09:47.115Z,55.41
2023-04-17T05:12:14.556Z,55.32
2023-04-17T05:14:41.727Z,55.45
2023-04-17T05:17:09.181Z,55.22
2023-04-17T05:19:37.196Z,55.55
2023-04-17T05:22:04.647Z,55.40
2023-04-17T05:24:31.773Z,55.21
2023-04-17T05:26:58.769Z,55.14
2023-04-17T05:29:26.928Z,55.19
2023-04-17T05:31:54.494Z,54.99
2023-04-17T05:34:21.876Z,55.10
2023-04-17T05:36:49.944Z,54.72
2023-04-17T05:39:19.605Z,54.78
2023-04-17T05:41:46.940Z,54.36
2023-04-17T05:44:14.415Z,54.43
2023-04-17T05:46:41.853Z,54.06
2023-04-17T05:49:09.994Z,54.25
2023-04-17T05:51:38.084Z,53.93
2023-04-17T05:54:05.624Z,53.44
2023-04-17T05:56:33.514Z,53.19
2023-04-17T05:59:00.948Z,53.29
2023-04-17T06:01:30.772Z,53.06
2023-04-17T06:04:00.822Z,52.78
2023-04-17T06:06:30.720Z,52.41
2023-04-17T06:09:02.899Z,53.01
2023-04-17T06:11:32.036Z,52.52
2023-04-17T06:14:04.225Z,51.85
2023-04-17T06:16:37.466Z,52.08
2023-04-17T06:19:05.959Z,51.87
2023-04-17T06:21:33.246Z,51.70
2023-04-17T06:24:00.128Z,50.89
2023-04-17T06:26:26.962Z,51.14
2023-04-17T06:28:55.164Z,50.75
2023-04-17T06:31:23.396Z,50.39
2023-04-17T06:33:51.319Z,50.32
2023-04-17T06:36:18.206Z,50.35
2023-04-17T06:38:45.033Z,50.38
2023-04-17T06:41:11.967Z,50.39
2023-04-17T06:43:38.841Z,50.08
2023-04-17T06:46:06.537Z,50.09
2023-04-17T06:48:33.427Z,49.36
2023-04-17T06:51:00.321Z,49.21
2023-04-17T06:53:27.532Z,49.12
2023-04-17T06:55:54.838Z,49.11
2023-04-17T06:58:21.692Z,48.75
2023-04-17T07:00:48.666Z,49.07
2023-04-17T07:03:16.911Z,48.73
2023-04-17T07:05:44.724Z,48.82
2023-04-17T07:08:11.649Z,48.67
2023-04-17T07:10:38.482Z,48.56
2023-04-17T07:13:05.407Z,48.35
2023-04-17T07:15:32.403Z,48.49
2023-04-17T07:17:59.407Z,48.08
2023-04-17T07:20:26.481Z,47.77
2023-04-17T07:22:53.380Z,48.43
2023-04-17T07:25:20.346Z,48.12
2023-04-17T07:27:47.361Z,47.74
2023-04-17T07:30:14.382Z,47.87
2023-04-17T07:32:41.538Z,48.54
2023-04-17T07:35:08.888Z,48.36
2023-04-17T07:37:37.307Z,48.15
2023-04-17T07:40:06.891Z,48.22
2023-04-17T07:42:33.788Z,48.03
2023-04-17T07:45:00.737Z,47.61
2023-04-17T07:47:27.690Z,47.93
2023-04-17T07:49:54.671Z,47.61
2023-04-17T07:52:21.663Z,47.44
2023-04-17T07:54:48.601Z,47.41
2023-04-17T07:57:15.839Z,47.66
2023-04-17T07:59:42.854Z,47.13
2023-04-17T08:02:10.040Z,47.04
2023-04-17T08:04:38.129Z,47.13
2023-04-17T08:07:05.239Z,47.29
2023-04-17T08:09:32.176Z,47.11
2023-04-17T08:11:59.088Z,47.05
2023-04-17T08:14:26.023Z,47.06
2023-04-17T08:16:52.888Z,47.30
2023-04-17T08:19:19.897Z,46.72
2023-04-17T08:21:48.160Z,46.65
2023-04-17T08:24:17.818Z,46.77
2023-04-17T08:26:46.596Z,46.57
2023-04-17T08:29:14.405Z,46.85
2023-04-17T08:31:41.720Z,46.75
2023-04-17T08:34:14.239Z,46.62
2023-04-17T08:36:43.077Z,46.16
2023-04-17T08:39:12.921Z,46.38
2023-04-17T08:41:43.423Z,46.06
2023-04-17T08:44:10.545Z,46.17
2023-04-17T08:46:38.616Z,46.23
2023-04-17T08:49:05.848Z,46.16
2023-04-17T08:51:33.146Z,45.87
2023-04-17T08:54:00.096Z,45.64
2023-04-17T08:56:28.738Z,45.85
2023-04-17T08:58:55.600Z,46.04
2023-04-17T09:01:27.648Z,46.01
2023-04-17T09:03:54.980Z,45.71
2023-04-17T09:06:22.085Z,45.84
2023-04-17T09:08:52.409Z,45.63
2023-04-17T09:11:22.567Z,45.75
2023-04-17T09:13:49.913Z,45.35
2023-04-17T09:16:17.079Z,45.29
2023-04-17T09:18:46.458Z,45.69
2023-04-17T09:21:18.842Z,45.55
2023-04-17T09:23:48.549Z,45.32
2023-04-17T09:26:16.326Z,44.97
2023-04-17T09:29:00.655Z,45.07
2023-04-17T09:31:36.171Z,44.80
2023-04-17T09:34:04.775Z,44.95
2023-04-17T09:36:33.032Z,44.86
2023-04-17T09:39:01.353Z,44.92
2023-04-17T09:41:33.233Z,45.10
2023-04-17T09:44:02.400Z,44.62
2023-04-17T09:46:32.458Z,44.66
2023-04-17T09:49:02.349Z,44.89
2023-04-17T09:51:29.983Z,44.61
2023-04-17T09:54:01.501Z,44.78
2023-04-17T09:56:29.939Z,44.42
2023-04-17T09:58:57.899Z,44.74
2023-04-17T10:01:30.480Z,44.71
2023-04-17T10:03:58.397Z,44.71
2023-04-17T10:06:27.456Z,44.41
2023-04-17T10:08:56.987Z,44.18
2023-04-17T10:11:29.219Z,44.72
2023-04-17T10:14:03.443Z,44.62
2023-04-17T10:16:33.571Z,44.53
2023-04-17T10:19:03.727Z,44.82
2023-04-17T10:21:31.489Z,44.76
2023-04-17T10:23:59.716Z,44.65
2023-04-17T10:26:28.361Z,44.31
2023-04-17T10:28:56.205Z,44.34
2023-04-17T10:31:26.026Z,44.04
2023-04-17T10:33:54.617Z,44.47
2023-04-17T10:36:24.570Z,44.34
2023-04-17T10:38:51.562Z,44.47
2023-04-17T10:41:22.244Z,44.38
2023-04-17T10:43:49.556Z,44.57
2023-04-17T10:46:16.516Z,44.07
2023-04-17T10:48:46.603Z,44.51
2023-04-17T10:51:16.540Z,44.22
2023-04-17T10:53:46.926Z,44.27
2023-04-17T10:56:18.479Z,44.08
2023-04-17T10:58:48.602Z,44.14
2023-04-17T11:01:17.899Z,44.34
2023-04-17T11:03:45.358Z,44.16
2023-04-17T11:06:12.638Z,44.15
2023-04-17T11:08:39.879Z,44.25
2023-04-17T11:11:12.230Z,44.41
2023-04-17T11:13:42.341Z,44.39
2023-04-17T11:16:09.781Z,44.69
2023-04-17T11:18:38.076Z,44.47
2023-04-17T11:21:05.220Z,44.42
2023-04-17T11:23:34.470Z,44.51
2023-04-17T11:26:01.708Z,44.69
2023-04-17T11:28:29.420Z,44.53
2023-04-17T11:30:56.366Z,44.89
2023-04-17T11:33:26.590Z,44.81
2023-04-17T11:35:54.450Z,44.79
2023-04-17T11:38:22.575Z,44.79
2023-04-17T11:40:51.262Z,44.52
2023-04-17T11:43:19.000Z,44.66
2023-04-17T11:45:46.943Z,44.87
2023-04-17T11:48:15.248Z,44.55
2023-04-17T11:50:43.910Z,44.73
2023-04-17T11:53:13.486Z,44.98
2023-04-17T11:55:40.425Z,45.01
2023-04-17T11:58:08.625Z,44.85
2023-04-17T12:00:35.930Z,45.04
2023-04-17T12:03:03.625Z,44.80
2023-04-17T12:05:31.407Z,44.82
2023-04-17T12:08:01.899Z,44.92
2023-04-17T12:10:35.053Z,45.21
2023-04-17T12:13:01.987Z,44.96
2023-04-17T12:15:28.979Z,45.05
2023-04-17T12:17:55.989Z,45.10
2023-04-17T12:20:24.734Z,45.00
2023-04-17T12:22:53.103Z,44.88
2023-04-17T12:25:20.086Z,44.85
2023-04-17T12:27:49.229Z,44.82
2023-04-17T12:30:17.112Z,44.92
2023-04-17T12:32:49.075Z,44.98
2023-04-17T12:35:16.423Z,45.14
2023-04-17T12:37:48.616Z,45.38
2023-04-17T12:40:17.643Z,45.06
2023-04-17T12:42:49.287Z,45.45
2023-04-17T12:45:17.347Z,45.23
2023-04-17T12:47:44.611Z,45.60
2023-04-17T12:50:12.487Z,45.47
2023-04-17T12:52:39.914Z,45.53
2023-04-17T12:55:08.024Z,45.31
2023-04-17T12:57:36.093Z,45.43
2023-04-17T13:00:06.158Z,45.68
2023-04-17T13:02:35.448Z,45.29
2023-04-17T13:05:03.209Z,45.24
2023-04-17T13:07:30.644Z,45.48
2023-04-17T13:09:58.009Z,45.05
2023-04-17T13:12:25.330Z,44.14
2023-04-17T13:14:52.588Z,43.50
2023-04-17T13:17:21.335Z,43.51
2023-04-17T13:19:48.340Z,43.65
2023-04-17T13:22:16.419Z,43.30
2023-04-17T13:24:43.598Z,43.16
2023-04-17T13:27:10.868Z,42.86
2023-04-17T13:29:37.956Z,43.46
2023-04-17T13:32:07.450Z,44.24
2023-04-17T13:34:34.398Z,44.53
2023-04-17T13:37:01.372Z,44.49
2023-04-17T13:39:28.378Z,44.38
2023-04-17T13:41:57.697Z,44.55
2023-04-17T13:44:25.170Z,44.65
2023-04-17T13:46:52.923Z,45.06
2023-04-17T13:49:20.043Z,45.45
2023-04-17T13:51:47.185Z,47.94
2023-04-17T13:54:14.203Z,45.04
2023-04-17T13:56:41.238Z,43.55
2023-04-17T13:59:08.308Z,43.49
2023-04-17T14:01:40.773Z,44.17
2023-04-17T14:04:08.165Z,44.39
2023-04-17T14:06:38.622Z,44.49
2023-04-17T14:09:06.153Z,45.36
2023-04-17T14:11:33.100Z,45.39
2023-04-17T14:14:00.008Z,45.39
2023-04-17T14:16:28.146Z,45.69
2023-04-17T14:18:57.855Z,45.98
2023-04-17T14:21:29.451Z,45.67
2023-04-17T14:23:57.262Z,45.64
2023-04-17T14:26:24.229Z,45.80
2023-04-17T14:28:53.680Z,46.25
2023-04-17T14:31:27.331Z,45.98
2023-04-17T14:33:54.885Z,46.21
2023-04-17T14:36:21.911Z,45.75
2023-04-17T14:38:51.560Z,45.75
2023-04-17T14:41:25.144Z,46.15
2023-04-17T14:43:52.512Z,45.74
2023-04-17T14:46:19.508Z,45.65
2023-04-17T14:51:17.025Z,45.82
2023-04-17T14:53:44.202Z,45.78
2023-04-17T14:56:11.248Z,45.84
2023-04-17T14:58:38.319Z,45.66
2023-04-17T15:01:05.832Z,45.88
2023-04-17T15:03:32.841Z,45.52
2023-04-17T15:06:01.965Z,45.73
2023-04-17T15:08:31.398Z,45.75
2023-04-17T15:10:59.391Z,45.96
2023-04-17T15:13:27.075Z,46.02
2023-04-17T15:15:55.595Z,45.99
2023-04-17T15:18:22.899Z,46.05
2023-04-17T15:20:51.324Z,46.19
2023-04-17T15:23:19.316Z,45.99
2023-04-17T15:25:46.717Z,45.91
2023-04-17T15:28:13.714Z,46.13
2023-04-17T15:30:43.749Z,46.27
2023-04-17T15:33:10.936Z,45.88
2023-04-17T15:35:38.664Z,46.12
2023-04-17T15:38:06.662Z,45.63
2023-04-17T15:40:34.582Z,45.84
2023-04-17T15:43:02.428Z,45.62
2023-04-17T15:45:33.049Z,45.57
2023-04-17T15:48:01.674Z,45.40
2023-04-17T15:50:29.329Z,45.29
2023-04-17T15:52:56.921Z,45.54
2023-04-17T15:55:27.972Z,45.55
2023-04-17T15:57:55.312Z,45.38
2023-04-17T16:00:22.767Z,45.31
2023-04-17T16:02:50.971Z,45.07
2023-04-17T16:05:19.410Z,45.33
2023-04-17T16:07:47.399Z,45.27
2023-04-17T16:10:15.312Z,45.41
2023-04-17T16:12:43.938Z,45.13
2023-04-17T16:15:14.995Z,44.92
2023-04-17T16:17:42.519Z,44.98
2023-04-17T16:20:11.691Z,45.03
2023-04-17T16:22:39.185Z,44.60
2023-04-17T16:25:07.402Z,44.55
2023-04-17T16:27:34.885Z,44.82
2023-04-17T16:30:03.870Z,45.05
2023-04-17T16:32:32.312Z,44.73
2023-04-17T16:34:59.954Z,44.83
2023-04-17T16:37:27.624Z,44.48
2023-04-17T16:39:54.798Z,44.74
2023-04-17T16:42:25.387Z,44.39
2023-04-17T16:44:52.749Z,44.56
2023-04-17T16:47:20.169Z,44.18
2023-04-17T16:49:48.096Z,44.62
2023-04-17T16:52:16.748Z,44.17
2023-04-17T16:54:44.184Z,44.20
2023-04-17T16:57:13.880Z,44.28
2023-04-17T16:59:43.321Z,44.29
2023-04-17T17:02:10.765Z,44.27
2023-04-17T17:04:38.328Z,44.38
2023-04-17T17:07:06.601Z,44.04
2023-04-17T17:09:36.270Z,44.44
2023-04-17T17:12:04.066Z,44.08
2023-04-17T17:14:31.557Z,43.96
2023-04-17T17:16:59.307Z,44.40
2023-04-17T17:19:26.751Z,44.50
2023-04-17T17:21:55.640Z,44.42
2023-04-17T17:24:23.086Z,44.28
2023-04-17T17:26:50.507Z,43.95
2023-04-17T17:29:18.108Z,44.21
2023-04-17T17:31:45.370Z,44.18
2023-04-17T17:36:42.801Z,44.04
2023-04-17T17:39:10.427Z,44.08
2023-04-17T17:41:37.627Z,44.22
2023-04-17T17:44:04.913Z,44.20
2023-04-17T17:46:34.788Z,44.81
2023-04-17T17:49:02.195Z,44.58
2023-04-17T17:51:32.085Z,44.77
2023-04-17T17:53:59.229Z,44.69
2023-04-17T17:56:26.349Z,44.63
2023-04-17T17:58:53.471Z,44.51
2023-04-17T18:01:23.101Z,44.44
2023-04-17T18:03:51.893Z,44.72
2023-04-17T18:06:21.042Z,44.70
2023-04-17T18:08:48.271Z,44.59
2023-04-17T18:11:17.930Z,44.62
2023-04-17T18:13:45.308Z,44.89
2023-04-17T18:16:12.471Z,45.06
2023-04-17T18:18:39.540Z,44.65
2023-04-17T18:21:10.432Z,44.67
2023-04-17T18:23:37.713Z,44.56
2023-04-17T18:26:04.801Z,44.58
2023-04-17T18:28:33.059Z,44.98
2023-04-17T18:31:00.220Z,45.11
2023-04-17T18:33:29.421Z,45.12
2023-04-17T18:35:56.506Z,44.99
2023-04-17T18:38:23.387Z,45.11
2023-04-17T18:40:53.871Z,45.11
2023-04-17T18:43:21.043Z,45.05
2023-04-17T18:45:47.992Z,44.58
2023-04-17T18:48:14.988Z,44.69
2023-04-17T18:50:42.072Z,44.76
2023-04-17T18:53:09.130Z,44.33
2023-04-17T18:55:37.584Z,44.39
2023-04-17T18:58:07.345Z,44.23
2023-04-17T19:00:34.475Z,44.38
2023-04-17T19:03:01.578Z,44.50
2023-04-17T19:05:28.612Z,44.52
2023-04-17T19:07:55.701Z,44.32
2023-04-17T19:10:23.366Z,44.02
2023-04-17T19:12:50.335Z,43.96
2023-04-17T19:15:17.919Z,43.94
2023-04-17T19:17:44.854Z,44.11
2023-04-17T19:20:12.176Z,43.93
2023-04-17T19:22:39.119Z,44.41
2023-04-17T19:25:08.733Z,43.98
2023-04-17T19:27:35.873Z,44.25
2023-04-17T19:30:02.897Z,44.62
2023-04-17T19:32:31.533Z,44.41
2023-04-17T19:34:58.633Z,44.52
2023-04-17T19:37:25.626Z,44.67
2023-04-17T19:39:56.229Z,44.60
2023-04-17T19:42:23.695Z,44.72
2023-04-17T19:44:50.602Z,44.31
2023-04-17T19:47:17.650Z,44.66
2023-04-17T19:49:45.113Z,44.46
2023-04-17T19:52:12.264Z,44.73
2023-04-17T19:54:39.517Z,44.90
2023-04-17T19:57:06.496Z,44.70
2023-04-17T19:59:33.356Z,45.08
2023-04-17T20:02:02.588Z,44.88
2023-04-17T20:04:29.788Z,44.80
2023-04-17T20:06:56.916Z,44.41
2023-04-17T20:09:24.010Z,44.70
2023-04-17T20:11:50.889Z,44.67
2023-04-17T20:14:19.811Z,44.46
2023-04-17T20:16:48.956Z,44.91
2023-04-17T20:19:18.644Z,44.53
2023-04-17T20:21:47.203Z,45.03
2023-04-17T20:24:16.179Z,44.69
2023-04-17T20:26:45.903Z,44.71
2023-04-17T20:29:13.011Z,44.44
2023-04-17T20:31:40.311Z,44.88
2023-04-17T20:34:07.420Z,44.89
2023-04-17T20:36:34.287Z,44.58
2023-04-17T20:39:01.160Z,44.74
2023-04-17T20:41:28.666Z,44.73
2023-04-17T20:43:58.484Z,44.67
2023-04-17T20:46:26.305Z,44.61
2023-04-17T20:48:53.419Z,44.38
2023-04-17T20:51:23.435Z,44.35
2023-04-17T20:53:50.685Z,44.03
2023-04-17T20:56:17.947Z,44.03
2023-04-17T20:58:45.066Z,44.42
2023-04-17T21:01:12.051Z,44.21
2023-04-17T21:03:39.077Z,44.03
2023-04-17T21:06:06.208Z,44.20
2023-04-17T21:08:33.266Z,44.05
2023-04-17T21:11:00.862Z,44.28
2023-04-17T21:13:27.785Z,43.87
2023-04-17T21:15:54.783Z,44.25
2023-04-17T21:18:21.720Z,44.06
2023-04-17T21:20:48.755Z,44.19
2023-04-17T21:23:15.657Z,43.65
2023-04-17T21:25:42.619Z,43.82
2023-04-17T21:28:09.629Z,43.71
2023-04-17T21:30:38.836Z,43.72
2023-04-17T21:33:06.201Z,43.67
2023-04-17T21:35:33.203Z,44.00
2023-04-17T21:38:00.694Z,43.97
2023-04-17T21:40:33.129Z,43.74
2023-04-17T21:43:03.364Z,43.76
2023-04-17T21:45:31.550Z,43.60
2023-04-17T21:47:58.778Z,43.93
2023-04-17T21:50:26.008Z,44.03
2023-04-17T21:52:52.822Z,44.09
2023-04-17T21:55:20.069Z,43.59
2023-04-17T21:57:46.954Z,43.88
2023-04-17T22:00:14.659Z,43.53
2023-04-17T22:02:41.777Z,43.77
2023-04-17T22:05:08.920Z,43.50
2023-04-17T22:07:44.023Z,43.94
2023-04-17T22:10:18.546Z,43.86
2023-04-17T22:12:45.492Z,43.50
2023-04-17T22:15:12.772Z,43.83
2023-04-17T22:17:39.737Z,43.47
2023-04-17T22:20:07.541Z,43.86
2023-04-17T22:22:34.393Z,43.46
2023-04-17T22:25:01.404Z,44.05
2023-04-17T22:27:29.308Z,43.69
2023-04-17T22:29:56.586Z,43.91
2023-04-17T22:32:23.586Z,44.22
2023-04-17T22:34:50.451Z,44.06
2023-04-17T22:37:18.686Z,44.42
2023-04-17T22:39:45.824Z,44.08
2023-04-17T22:42:12.756Z,44.19
2023-04-17T22:44:39.655Z,44.06
2023-04-17T22:47:06.517Z,44.53
2023-04-17T22:49:38.241Z,44.63
2023-04-17T22:52:06.505Z,44.67
2023-04-17T22:54:33.902Z,44.61
2023-04-17T22:57:00.868Z,44.88
2023-04-17T22:59:27.758Z,44.92
2023-04-17T23:01:54.726Z,45.34
2023-04-17T23:04:22.748Z,44.90
2023-04-17T23:06:49.798Z,45.26
2023-04-17T23:09:16.829Z,45.24
2023-04-17T23:11:43.715Z,45.35
2023-04-17T23:14:11.590Z,45.35
2023-04-17T23:16:38.622Z,45.21
2023-04-17T23:19:05.589Z,45.69
2023-04-17T23:21:32.527Z,45.39
2023-04-17T23:23:59.501Z,45.62
2023-04-17T23:26:26.328Z,46.03
2023-04-17T23:28:53.151Z,46.12
2023-04-17T23:31:19.966Z,46.25
2023-04-17T23:33:47.001Z,45.86
2023-04-17T23:36:13.967Z,46.14
2023-04-17T23:38:40.895Z,46.28
2023-04-17T23:41:07.698Z,46.29
2023-04-17T23:43:34.586Z,46.54
2023-04-17T23:46:01.518Z,46.64
2023-04-17T23:48:28.493Z,46.49
2023-04-17T23:50:55.406Z,46.36
2023-04-17T23:53:22.283Z,46.82
2023-04-17T23:55:49.096Z,46.90
2023-04-17T23:58:15.965Z,46.99
